sensor_id;sensor_type;location;lat;lon;timestamp;temperature;humidity
21169;DHT22;10742;51.816;8.662;2024-03-23T00:57:01;13.00;97.20
21169;DHT22;10742;51.816;8.662;2024-03-23T01:00:21;13.00;97.30
21169;DHT22;10742;51.816;8.662;2024-03-23T01:03:42;13.00;97.40
21169;DHT22;10742;51.816;8.662;2024-03-23T01:07:03;13.00;97.40
21169;DHT22;10742;51.816;8.662;2024-03-23T01:10:23;13.00;97.50
21169;DHT22;10742;51.816;8.662;2024-03-23T01:13:43;13.00;97.40
21169;DHT22;10742;51.816;8.662;2024-03-23T01:17:04;13.00;97.30
21169;DHT22;10742;51.816;8.662;2024-03-23T01:20:25;13.00;97.30
21169;DHT22;10742;51.816;8.662;2024-03-23T01:23:46;12.90;97.20
21169;DHT22;10742;51.816;8.662;2024-03-23T01:27:06;12.90;97.20
21169;DHT22;10742;51.816;8.662;2024-03-23T01:30:27;12.80;97.20
21169;DHT22;10742;51.816;8.662;2024-03-23T01:33:47;12.80;97.20
21169;DHT22;10742;51.816;8.662;2024-03-23T01:37:08;12.80;97.20
21169;DHT22;10742;51.816;8.662;2024-03-23T01:40:28;12.70;97.50
21169;DHT22;10742;51.816;8.662;2024-03-23T01:43:53;12.60;97.20
21169;DHT22;10742;51.816;8.662;2024-03-23T01:47:15;12.60;97.30
21169;DHT22;10742;51.816;8.662;2024-03-23T01:50:35;12.60;97.50
21169;DHT22;10742;51.816;8.662;2024-03-23T01:53:56;12.60;97.60
21169;DHT22;10742;51.816;8.662;2024-03-23T01:57:17;12.60;97.50
21169;DHT22;10742;51.816;8.662;2024-03-23T02:00:38;12.60;97.50
21169;DHT22;10742;51.816;8.662;2024-03-23T02:03:58;12.50;97.60
21169;DHT22;10742;51.816;8.662;2024-03-23T02:07:18;12.50;97.60
21169;DHT22;10742;51.816;8.662;2024-03-23T02:10:39;12.50;97.60
21169;DHT22;10742;51.816;8.662;2024-03-23T02:14:00;12.40;97.60
21169;DHT22;10742;51.816;8.662;2024-03-23T02:17:20;12.40;97.70
21169;DHT22;10742;51.816;8.662;2024-03-23T02:20:41;12.40;97.80
21169;DHT22;10742;51.816;8.662;2024-03-23T02:24:01;12.40;97.80
21169;DHT22;10742;51.816;8.662;2024-03-23T02:27:22;12.40;97.90
21169;DHT22;10742;51.816;8.662;2024-03-23T02:30:43;12.30;97.90
21169;DHT22;10742;51.816;8.662;2024-03-23T02:34:03;12.30;97.80
21169;DHT22;10742;51.816;8.662;2024-03-23T02:37:23;12.30;97.80
21169;DHT22;10742;51.816;8.662;2024-03-23T02:40:44;12.30;97.90
21169;DHT22;10742;51.816;8.662;2024-03-23T02:44:05;12.20;97.90
21169;DHT22;10742;51.816;8.662;2024-03-23T02:47:25;12.20;97.90
21169;DHT22;10742;51.816;8.662;2024-03-23T02:50:46;12.20;97.90
21169;DHT22;10742;51.816;8.662;2024-03-23T02:54:06;12.20;98.00
21169;DHT22;10742;51.816;8.662;2024-03-23T02:57:27;12.10;98.00
21169;DHT22;10742;51.816;8.662;2024-03-23T03:00:47;12.20;98.00
21169;DHT22;10742;51.816;8.662;2024-03-23T03:04:08;12.10;97.90
21169;DHT22;10742;51.816;8.662;2024-03-23T03:07:28;12.10;98.00
21169;DHT22;10742;51.816;8.662;2024-03-23T03:10:49;12.10;98.00
21169;DHT22;10742;51.816;8.662;2024-03-23T03:14:09;12.10;97.90
21169;DHT22;10742;51.816;8.662;2024-03-23T03:17:30;12.00;97.90
21169;DHT22;10742;51.816;8.662;2024-03-23T03:20:54;12.10;97.90
21169;DHT22;10742;51.816;8.662;2024-03-23T03:24:15;12.10;97.90
21169;DHT22;10742;51.816;8.662;2024-03-23T03:27:35;12.10;97.80
21169;DHT22;10742;51.816;8.662;2024-03-23T03:30:56;12.00;97.80
21169;DHT22;10742;51.816;8.662;2024-03-23T03:34:17;12.00;97.80
21169;DHT22;10742;51.816;8.662;2024-03-23T03:37:37;12.00;97.80
21169;DHT22;10742;51.816;8.662;2024-03-23T03:40:58;12.00;97.80
21169;DHT22;10742;51.816;8.662;2024-03-23T03:44:19;12.00;97.80
21169;DHT22;10742;51.816;8.662;2024-03-23T03:47:39;11.90;97.60
21169;DHT22;10742;51.816;8.662;2024-03-23T03:51:00;11.90;97.70
21169;DHT22;10742;51.816;8.662;2024-03-23T03:54:20;11.90;97.80
21169;DHT22;10742;51.816;8.662;2024-03-23T03:57:41;11.90;97.80
21169;DHT22;10742;51.816;8.662;2024-03-23T04:01:01;11.90;97.80
21169;DHT22;10742;51.816;8.662;2024-03-23T04:04:22;11.90;97.80
21169;DHT22;10742;51.816;8.662;2024-03-23T04:07:42;11.90;97.70
21169;DHT22;10742;51.816;8.662;2024-03-23T04:11:03;11.90;97.70
21169;DHT22;10742;51.816;8.662;2024-03-23T04:14:23;11.90;97.60
21169;DHT22;10742;51.816;8.662;2024-03-23T04:17:44;11.90;97.60
21169;DHT22;10742;51.816;8.662;2024-03-23T04:21:04;11.90;97.60
21169;DHT22;10742;51.816;8.662;2024-03-23T04:24:25;11.90;97.60
21169;DHT22;10742;51.816;8.662;2024-03-23T04:27:46;11.80;97.60
21169;DHT22;10742;51.816;8.662;2024-03-23T04:31:07;11.80;97.60
21169;DHT22;10742;51.816;8.662;2024-03-23T04:34:28;11.80;97.70
21169;DHT22;10742;51.816;8.662;2024-03-23T04:37:48;11.80;97.60
21169;DHT22;10742;51.816;8.662;2024-03-23T04:41:08;11.80;97.60
21169;DHT22;10742;51.816;8.662;2024-03-23T04:44:31;11.80;98.00
21169;DHT22;10742;51.816;8.662;2024-03-23T04:47:52;11.80;97.90
21169;DHT22;10742;51.816;8.662;2024-03-23T04:51:25;11.80;97.70
21169;DHT22;10742;51.816;8.662;2024-03-23T04:54:46;11.70;97.80
21169;DHT22;10742;51.816;8.662;2024-03-23T04:58:06;11.70;97.70
21169;DHT22;10742;51.816;8.662;2024-03-23T05:01:27;11.70;97.80
21169;DHT22;10742;51.816;8.662;2024-03-23T05:04:48;11.70;97.80
21169;DHT22;10742;51.816;8.662;2024-03-23T05:08:08;11.60;97.70
21169;DHT22;10742;51.816;8.662;2024-03-23T05:11:29;11.60;97.70
21169;DHT22;10742;51.816;8.662;2024-03-23T05:14:49;11.60;97.60
21169;DHT22;10742;51.816;8.662;2024-03-23T05:18:10;11.60;97.50
21169;DHT22;10742;51.816;8.662;2024-03-23T05:21:30;11.50;97.40
21169;DHT22;10742;51.816;8.662;2024-03-23T05:24:51;11.50;97.40
21169;DHT22;10742;51.816;8.662;2024-03-23T05:28:11;11.50;97.40
21169;DHT22;10742;51.816;8.662;2024-03-23T05:31:32;11.50;97.50
21169;DHT22;10742;51.816;8.662;2024-03-23T05:34:54;11.50;97.50
21169;DHT22;10742;51.816;8.662;2024-03-23T05:38:16;11.40;97.40
21169;DHT22;10742;51.816;8.662;2024-03-23T05:41:37;11.40;97.40
21169;DHT22;10742;51.816;8.662;2024-03-23T05:44:57;11.40;97.40
21169;DHT22;10742;51.816;8.662;2024-03-23T05:48:18;11.40;97.30
21169;DHT22;10742;51.816;8.662;2024-03-23T05:51:38;11.40;97.30
21169;DHT22;10742;51.816;8.662;2024-03-23T05:54:59;11.40;97.60
21169;DHT22;10742;51.816;8.662;2024-03-23T05:58:19;11.40;97.30
21169;DHT22;10742;51.816;8.662;2024-03-23T06:01:43;11.40;97.30
21169;DHT22;10742;51.816;8.662;2024-03-23T06:05:03;11.40;97.30
21169;DHT22;10742;51.816;8.662;2024-03-23T06:08:26;11.30;97.30
21169;DHT22;10742;51.816;8.662;2024-03-23T06:11:46;11.30;97.30
21169;DHT22;10742;51.816;8.662;2024-03-23T06:15:07;11.30;97.30
21169;DHT22;10742;51.816;8.662;2024-03-23T06:18:30;11.30;97.40
21169;DHT22;10742;51.816;8.662;2024-03-23T06:21:50;11.30;97.50
21169;DHT22;10742;51.816;8.662;2024-03-23T06:25:10;11.40;97.60
21169;DHT22;10742;51.816;8.662;2024-03-23T06:28:32;11.40;97.60
21169;DHT22;10742;51.816;8.662;2024-03-23T06:31:54;11.40;97.70
21169;DHT22;10742;51.816;8.662;2024-03-23T06:35:14;11.40;97.70
21169;DHT22;10742;51.816;8.662;2024-03-23T06:38:36;11.40;98.00
21169;DHT22;10742;51.816;8.662;2024-03-23T06:41:56;11.00;98.70
21169;DHT22;10742;51.816;8.662;2024-03-23T06:45:17;11.10;98.60
21169;DHT22;10742;51.816;8.662;2024-03-23T06:48:45;11.20;98.30
21169;DHT22;10742;51.816;8.662;2024-03-23T06:52:05;11.30;98.10
21169;DHT22;10742;51.816;8.662;2024-03-23T06:55:26;11.40;98.00
21169;DHT22;10742;51.816;8.662;2024-03-23T06:58:47;11.50;97.90
21169;DHT22;10742;51.816;8.662;2024-03-23T07:02:07;11.50;97.80
21169;DHT22;10742;51.816;8.662;2024-03-23T07:05:29;11.50;97.80
21169;DHT22;10742;51.816;8.662;2024-03-23T07:08:49;11.50;97.80
21169;DHT22;10742;51.816;8.662;2024-03-23T07:12:09;11.50;97.80
21169;DHT22;10742;51.816;8.662;2024-03-23T07:15:30;11.60;97.90
21169;DHT22;10742;51.816;8.662;2024-03-23T07:18:50;11.60;97.90
21169;DHT22;10742;51.816;8.662;2024-03-23T07:22:11;11.60;97.80
21169;DHT22;10742;51.816;8.662;2024-03-23T07:25:31;11.60;97.80
21169;DHT22;10742;51.816;8.662;2024-03-23T07:28:52;11.70;97.80
21169;DHT22;10742;51.816;8.662;2024-03-23T07:32:13;11.60;97.80
21169;DHT22;10742;51.816;8.662;2024-03-23T07:35:34;11.70;97.80
21169;DHT22;10742;51.816;8.662;2024-03-23T07:38:54;11.70;97.90
21169;DHT22;10742;51.816;8.662;2024-03-23T07:42:15;11.70;98.00
21169;DHT22;10742;51.816;8.662;2024-03-23T07:45:35;11.70;98.20
21169;DHT22;10742;51.816;8.662;2024-03-23T07:48:57;11.80;98.30
21169;DHT22;10742;51.816;8.662;2024-03-23T07:52:18;11.80;98.10
21169;DHT22;10742;51.816;8.662;2024-03-23T07:55:38;11.90;98.20
21169;DHT22;10742;51.816;8.662;2024-03-23T07:58:59;11.90;98.20
21169;DHT22;10742;51.816;8.662;2024-03-23T08:02:20;12.00;98.20
21169;DHT22;10742;51.816;8.662;2024-03-23T08:05:40;12.00;98.20
21169;DHT22;10742;51.816;8.662;2024-03-23T08:09:01;12.10;98.10
21169;DHT22;10742;51.816;8.662;2024-03-23T08:12:21;12.10;98.10
21169;DHT22;10742;51.816;8.662;2024-03-23T08:15:42;12.20;98.10
21169;DHT22;10742;51.816;8.662;2024-03-23T08:19:05;12.20;98.10
21169;DHT22;10742;51.816;8.662;2024-03-23T08:22:28;12.20;98.10
21169;DHT22;10742;51.816;8.662;2024-03-23T08:25:49;12.30;98.10
21169;DHT22;10742;51.816;8.662;2024-03-23T08:29:09;12.30;98.10
21169;DHT22;10742;51.816;8.662;2024-03-23T08:32:30;12.40;98.10
21169;DHT22;10742;51.816;8.662;2024-03-23T08:36:02;12.50;98.20
21169;DHT22;10742;51.816;8.662;2024-03-23T08:39:23;12.50;98.10
21169;DHT22;10742;51.816;8.662;2024-03-23T08:42:43;12.60;98.10
21169;DHT22;10742;51.816;8.662;2024-03-23T08:46:12;12.70;98.00
21169;DHT22;10742;51.816;8.662;2024-03-23T08:49:32;12.70;97.60
21169;DHT22;10742;51.816;8.662;2024-03-23T08:52:52;12.80;97.80
21169;DHT22;10742;51.816;8.662;2024-03-23T08:56:13;12.90;97.80
21169;DHT22;10742;51.816;8.662;2024-03-23T08:59:33;12.90;97.70
21169;DHT22;10742;51.816;8.662;2024-03-23T09:02:55;13.10;97.80
21169;DHT22;10742;51.816;8.662;2024-03-23T09:06:15;13.20;98.20
21169;DHT22;10742;51.816;8.662;2024-03-23T09:09:40;13.40;98.20
21169;DHT22;10742;51.816;8.662;2024-03-23T09:13:00;13.60;98.50
21169;DHT22;10742;51.816;8.662;2024-03-23T09:16:21;13.80;98.40
21169;DHT22;10742;51.816;8.662;2024-03-23T09:19:41;14.10;97.90
21169;DHT22;10742;51.816;8.662;2024-03-23T09:23:01;14.30;97.80
21169;DHT22;10742;51.816;8.662;2024-03-23T09:26:22;14.60;97.40
21169;DHT22;10742;51.816;8.662;2024-03-23T09:29:42;14.80;97.00
21169;DHT22;10742;51.816;8.662;2024-03-23T09:33:03;15.10;96.30
21169;DHT22;10742;51.816;8.662;2024-03-23T09:36:27;15.20;96.30
21169;DHT22;10742;51.816;8.662;2024-03-23T09:39:47;15.40;96.00
21169;DHT22;10742;51.816;8.662;2024-03-23T09:43:08;15.60;95.60
21169;DHT22;10742;51.816;8.662;2024-03-23T09:46:30;15.70;94.60
21169;DHT22;10742;51.816;8.662;2024-03-23T09:49:54;15.60;94.00
21169;DHT22;10742;51.816;8.662;2024-03-23T09:53:15;15.50;93.50
21169;DHT22;10742;51.816;8.662;2024-03-23T09:56:35;15.40;93.40
21169;DHT22;10742;51.816;8.662;2024-03-23T09:59:56;15.30;93.50
21169;DHT22;10742;51.816;8.662;2024-03-23T10:03:18;15.10;93.30
21169;DHT22;10742;51.816;8.662;2024-03-23T10:06:38;15.00;93.30
21169;DHT22;10742;51.816;8.662;2024-03-23T10:09:58;14.80;93.60
21169;DHT22;10742;51.816;8.662;2024-03-23T10:13:30;14.70;94.10
21169;DHT22;10742;51.816;8.662;2024-03-23T10:16:50;14.70;94.50
21169;DHT22;10742;51.816;8.662;2024-03-23T10:20:12;14.70;94.50
21169;DHT22;10742;51.816;8.662;2024-03-23T10:23:36;14.80;94.60
21169;DHT22;10742;51.816;8.662;2024-03-23T10:26:57;14.80;94.80
21169;DHT22;10742;51.816;8.662;2024-03-23T10:30:17;15.00;95.00
21169;DHT22;10742;51.816;8.662;2024-03-23T10:33:45;15.10;95.00
21169;DHT22;10742;51.816;8.662;2024-03-23T10:37:07;15.30;94.30
21169;DHT22;10742;51.816;8.662;2024-03-23T10:40:29;15.40;94.10
21169;DHT22;10742;51.816;8.662;2024-03-23T10:43:50;15.60;94.10
21169;DHT22;10742;51.816;8.662;2024-03-23T10:47:10;15.60;92.70
21169;DHT22;10742;51.816;8.662;2024-03-23T10:50:31;15.50;91.20
21169;DHT22;10742;51.816;8.662;2024-03-23T10:53:53;15.30;90.40
21169;DHT22;10742;51.816;8.662;2024-03-23T10:57:18;14.90;89.90
21169;DHT22;10742;51.816;8.662;2024-03-23T11:00:40;14.50;90.00
21169;DHT22;10742;51.816;8.662;2024-03-23T11:04:00;14.20;90.50
21169;DHT22;10742;51.816;8.662;2024-03-23T11:10:44;13.70;91.00
21169;DHT22;10742;51.816;8.662;2024-03-23T11:14:22;13.50;91.50
21169;DHT22;10742;51.816;8.662;2024-03-23T11:18:02;13.40;92.00
21169;DHT22;10742;51.816;8.662;2024-03-23T11:21:52;13.30;92.20
21169;DHT22;10742;51.816;8.662;2024-03-23T11:25:20;13.30;92.30
21169;DHT22;10742;51.816;8.662;2024-03-23T11:28:41;13.30;92.60
21169;DHT22;10742;51.816;8.662;2024-03-23T11:32:03;13.20;92.50
21169;DHT22;10742;51.816;8.662;2024-03-23T11:38:47;13.20;92.80
21169;DHT22;10742;51.816;8.662;2024-03-23T11:42:07;13.20;93.10
21169;DHT22;10742;51.816;8.662;2024-03-23T11:45:28;13.20;93.30
21169;DHT22;10742;51.816;8.662;2024-03-23T11:48:50;13.20;94.00
21169;DHT22;10742;51.816;8.662;2024-03-23T11:52:11;13.30;93.90
21169;DHT22;10742;51.816;8.662;2024-03-23T11:56:00;13.40;93.90
21169;DHT22;10742;51.816;8.662;2024-03-23T11:59:38;13.50;93.80
21169;DHT22;10742;51.816;8.662;2024-03-23T12:03:03;13.60;93.70
21169;DHT22;10742;51.816;8.662;2024-03-23T12:06:24;13.70;93.70
21169;DHT22;10742;51.816;8.662;2024-03-23T12:09:45;13.80;93.70
21169;DHT22;10742;51.816;8.662;2024-03-23T12:13:08;13.90;93.50
21169;DHT22;10742;51.816;8.662;2024-03-23T12:16:29;13.90;93.30
21169;DHT22;10742;51.816;8.662;2024-03-23T12:19:49;13.90;93.20
21169;DHT22;10742;51.816;8.662;2024-03-23T12:23:13;14.00;93.30
21169;DHT22;10742;51.816;8.662;2024-03-23T12:26:37;14.10;93.40
21169;DHT22;10742;51.816;8.662;2024-03-23T12:30:00;14.20;93.70
21169;DHT22;10742;51.816;8.662;2024-03-23T12:33:22;14.30;93.70
21169;DHT22;10742;51.816;8.662;2024-03-23T12:36:43;14.40;93.90
21169;DHT22;10742;51.816;8.662;2024-03-23T12:40:05;14.50;93.70
21169;DHT22;10742;51.816;8.662;2024-03-23T12:43:30;14.70;93.20
21169;DHT22;10742;51.816;8.662;2024-03-23T12:46:50;14.50;90.90
21169;DHT22;10742;51.816;8.662;2024-03-23T12:50:11;14.40;91.30
21169;DHT22;10742;51.816;8.662;2024-03-23T12:53:31;14.30;91.30
21169;DHT22;10742;51.816;8.662;2024-03-23T12:56:51;14.10;91.30
21169;DHT22;10742;51.816;8.662;2024-03-23T13:00:13;13.90;91.60
21169;DHT22;10742;51.816;8.662;2024-03-23T13:03:33;13.80;92.10
21169;DHT22;10742;51.816;8.662;2024-03-23T13:06:53;13.70;92.50
21169;DHT22;10742;51.816;8.662;2024-03-23T13:10:14;13.70;92.60
21169;DHT22;10742;51.816;8.662;2024-03-23T13:13:36;13.80;92.50
21169;DHT22;10742;51.816;8.662;2024-03-23T13:16:56;13.80;92.30
21169;DHT22;10742;51.816;8.662;2024-03-23T13:20:16;13.80;92.20
21169;DHT22;10742;51.816;8.662;2024-03-23T13:23:37;13.80;92.20
21169;DHT22;10742;51.816;8.662;2024-03-23T13:27:00;13.90;92.20
21169;DHT22;10742;51.816;8.662;2024-03-23T13:30:20;13.90;92.40
21169;DHT22;10742;51.816;8.662;2024-03-23T13:33:41;14.00;92.10
21169;DHT22;10742;51.816;8.662;2024-03-23T13:37:04;14.00;92.10
21169;DHT22;10742;51.816;8.662;2024-03-23T13:40:26;14.10;92.10
21169;DHT22;10742;51.816;8.662;2024-03-23T13:43:46;14.20;92.10
21169;DHT22;10742;51.816;8.662;2024-03-23T13:47:06;14.30;92.00
21169;DHT22;10742;51.816;8.662;2024-03-23T13:50:27;14.30;91.90
21169;DHT22;10742;51.816;8.662;2024-03-23T13:53:47;14.40;91.70
21169;DHT22;10742;51.816;8.662;2024-03-23T13:57:08;14.50;91.60
21169;DHT22;10742;51.816;8.662;2024-03-23T14:00:28;14.60;91.50
21169;DHT22;10742;51.816;8.662;2024-03-23T14:03:49;14.60;91.20
21169;DHT22;10742;51.816;8.662;2024-03-23T14:07:09;14.60;91.20
21169;DHT22;10742;51.816;8.662;2024-03-23T14:10:30;14.70;91.10
21169;DHT22;10742;51.816;8.662;2024-03-23T14:13:51;14.70;91.10
21169;DHT22;10742;51.816;8.662;2024-03-23T14:17:11;14.70;90.90
21169;DHT22;10742;51.816;8.662;2024-03-23T14:20:34;14.70;90.80
21169;DHT22;10742;51.816;8.662;2024-03-23T14:23:55;14.70;90.70
21169;DHT22;10742;51.816;8.662;2024-03-23T14:27:15;14.70;90.40
21169;DHT22;10742;51.816;8.662;2024-03-23T14:30:36;14.60;90.00
21169;DHT22;10742;51.816;8.662;2024-03-23T14:33:57;14.50;89.40
21169;DHT22;10742;51.816;8.662;2024-03-23T14:37:17;14.30;89.70
21169;DHT22;10742;51.816;8.662;2024-03-23T14:40:38;14.10;90.10
21169;DHT22;10742;51.816;8.662;2024-03-23T14:43:59;14.00;90.50
21169;DHT22;10742;51.816;8.662;2024-03-23T14:47:19;13.90;90.80
21169;DHT22;10742;51.816;8.662;2024-03-23T14:50:41;13.90;91.00
21169;DHT22;10742;51.816;8.662;2024-03-23T14:54:01;13.80;90.70
21169;DHT22;10742;51.816;8.662;2024-03-23T14:57:22;13.90;90.80
21169;DHT22;10742;51.816;8.662;2024-03-23T15:00:42;13.90;90.90
21169;DHT22;10742;51.816;8.662;2024-03-23T15:04:03;13.90;90.90
21169;DHT22;10742;51.816;8.662;2024-03-23T15:07:24;13.90;90.90
21169;DHT22;10742;51.816;8.662;2024-03-23T15:10:45;13.90;90.60
21169;DHT22;10742;51.816;8.662;2024-03-23T15:14:06;13.80;90.40
21169;DHT22;10742;51.816;8.662;2024-03-23T15:17:28;13.80;90.70
21169;DHT22;10742;51.816;8.662;2024-03-23T15:20:56;13.60;90.10
21169;DHT22;10742;51.816;8.662;2024-03-23T15:24:16;13.50;90.10
21169;DHT22;10742;51.816;8.662;2024-03-23T15:27:37;13.40;90.90
21169;DHT22;10742;51.816;8.662;2024-03-23T15:30:58;13.30;92.00
21169;DHT22;10742;51.816;8.662;2024-03-23T15:34:19;13.30;92.40
21169;DHT22;10742;51.816;8.662;2024-03-23T15:37:41;13.40;92.50
21169;DHT22;10742;51.816;8.662;2024-03-23T15:41:02;13.50;92.50
21169;DHT22;10742;51.816;8.662;2024-03-23T15:44:23;13.60;92.70
21169;DHT22;10742;51.816;8.662;2024-03-23T15:47:44;13.70;92.70
21169;DHT22;10742;51.816;8.662;2024-03-23T15:51:05;13.80;92.60
21169;DHT22;10742;51.816;8.662;2024-03-23T15:54:26;13.90;92.60
21169;DHT22;10742;51.816;8.662;2024-03-23T15:57:46;14.00;92.80
21169;DHT22;10742;51.816;8.662;2024-03-23T16:01:07;14.10;92.60
21169;DHT22;10742;51.816;8.662;2024-03-23T16:04:31;14.10;92.30
21169;DHT22;10742;51.816;8.662;2024-03-23T16:07:51;14.20;92.50
21169;DHT22;10742;51.816;8.662;2024-03-23T16:11:12;14.30;92.40
21169;DHT22;10742;51.816;8.662;2024-03-23T16:14:32;14.30;92.30
21169;DHT22;10742;51.816;8.662;2024-03-23T16:17:53;14.30;92.00
21169;DHT22;10742;51.816;8.662;2024-03-23T16:21:13;14.40;91.90
21169;DHT22;10742;51.816;8.662;2024-03-23T16:24:34;14.40;91.80
21169;DHT22;10742;51.816;8.662;2024-03-23T16:27:54;14.50;91.70
21169;DHT22;10742;51.816;8.662;2024-03-23T16:31:15;14.50;91.60
21169;DHT22;10742;51.816;8.662;2024-03-23T16:34:36;14.50;91.00
21169;DHT22;10742;51.816;8.662;2024-03-23T16:37:57;14.50;90.60
21169;DHT22;10742;51.816;8.662;2024-03-23T16:41:18;14.40;90.10
21169;DHT22;10742;51.816;8.662;2024-03-23T16:44:38;14.30;89.90
21169;DHT22;10742;51.816;8.662;2024-03-23T16:48:00;14.20;89.50
21169;DHT22;10742;51.816;8.662;2024-03-23T16:51:21;14.00;89.40
21169;DHT22;10742;51.816;8.662;2024-03-23T16:54:42;13.90;89.30
21169;DHT22;10742;51.816;8.662;2024-03-23T16:58:02;13.70;89.00
21169;DHT22;10742;51.816;8.662;2024-03-23T17:01:23;13.60;89.10
21169;DHT22;10742;51.816;8.662;2024-03-23T17:04:44;13.40;89.20
21169;DHT22;10742;51.816;8.662;2024-03-23T17:08:05;13.40;89.50
21169;DHT22;10742;51.816;8.662;2024-03-23T17:11:26;13.30;89.60
21169;DHT22;10742;51.816;8.662;2024-03-23T17:14:47;13.30;89.60
21169;DHT22;10742;51.816;8.662;2024-03-23T17:18:08;13.20;89.30
21169;DHT22;10742;51.816;8.662;2024-03-23T17:21:28;13.10;89.20
21169;DHT22;10742;51.816;8.662;2024-03-23T17:24:52;13.10;89.30
21169;DHT22;10742;51.816;8.662;2024-03-23T17:28:12;13.00;89.00
21169;DHT22;10742;51.816;8.662;2024-03-23T17:31:33;12.90;89.30
21169;DHT22;10742;51.816;8.662;2024-03-23T17:34:53;12.90;89.30
21169;DHT22;10742;51.816;8.662;2024-03-23T17:38:14;12.80;89.40
21169;DHT22;10742;51.816;8.662;2024-03-23T17:41:34;12.80;89.40
21169;DHT22;10742;51.816;8.662;2024-03-23T17:44:58;12.70;89.30
21169;DHT22;10742;51.816;8.662;2024-03-23T17:48:18;12.60;89.30
21169;DHT22;10742;51.816;8.662;2024-03-23T17:51:39;12.60;89.40
21169;DHT22;10742;51.816;8.662;2024-03-23T17:55:00;12.50;89.30
21169;DHT22;10742;51.816;8.662;2024-03-23T17:58:21;12.50;89.70
21169;DHT22;10742;51.816;8.662;2024-03-23T18:01:41;12.40;89.60
21169;DHT22;10742;51.816;8.662;2024-03-23T18:05:02;12.40;89.60
21169;DHT22;10742;51.816;8.662;2024-03-23T18:08:24;12.30;89.30
21169;DHT22;10742;51.816;8.662;2024-03-23T18:11:44;12.30;89.10
21169;DHT22;10742;51.816;8.662;2024-03-23T18:15:08;12.20;89.00
21169;DHT22;10742;51.816;8.662;2024-03-23T18:18:28;12.20;89.00
21169;DHT22;10742;51.816;8.662;2024-03-23T18:21:49;12.10;89.00
21169;DHT22;10742;51.816;8.662;2024-03-23T18:25:10;12.00;89.00
21169;DHT22;10742;51.816;8.662;2024-03-23T18:28:30;12.00;89.10
21169;DHT22;10742;51.816;8.662;2024-03-23T18:31:51;11.90;89.30
21169;DHT22;10742;51.816;8.662;2024-03-23T18:35:11;11.90;89.30
21169;DHT22;10742;51.816;8.662;2024-03-23T18:38:32;11.80;90.00
21169;DHT22;10742;51.816;8.662;2024-03-23T18:41:54;11.70;90.00
21169;DHT22;10742;51.816;8.662;2024-03-23T18:45:14;11.60;90.10
21169;DHT22;10742;51.816;8.662;2024-03-23T18:48:35;11.50;90.00
21169;DHT22;10742;51.816;8.662;2024-03-23T18:51:55;11.40;90.00
21169;DHT22;10742;51.816;8.662;2024-03-23T18:55:16;11.20;90.00
21169;DHT22;10742;51.816;8.662;2024-03-23T18:58:36;11.10;90.30
21169;DHT22;10742;51.816;8.662;2024-03-23T19:01:57;11.00;90.50
21169;DHT22;10742;51.816;8.662;2024-03-23T19:05:17;10.90;90.70
21169;DHT22;10742;51.816;8.662;2024-03-23T19:08:38;10.80;91.00
21169;DHT22;10742;51.816;8.662;2024-03-23T19:11:59;10.70;91.00
21169;DHT22;10742;51.816;8.662;2024-03-23T19:15:19;10.70;91.20
21169;DHT22;10742;51.816;8.662;2024-03-23T19:18:40;10.60;91.40
21169;DHT22;10742;51.816;8.662;2024-03-23T19:22:01;10.50;91.50
21169;DHT22;10742;51.816;8.662;2024-03-23T19:25:21;10.40;91.60
21169;DHT22;10742;51.816;8.662;2024-03-23T19:28:41;10.40;91.80
21169;DHT22;10742;51.816;8.662;2024-03-23T19:32:02;10.30;91.90
21169;DHT22;10742;51.816;8.662;2024-03-23T19:35:23;10.30;92.10
21169;DHT22;10742;51.816;8.662;2024-03-23T19:38:43;10.20;92.20
21169;DHT22;10742;51.816;8.662;2024-03-23T19:42:03;10.20;92.40
21169;DHT22;10742;51.816;8.662;2024-03-23T19:45:24;10.20;92.50
21169;DHT22;10742;51.816;8.662;2024-03-23T19:48:44;10.10;92.50
21169;DHT22;10742;51.816;8.662;2024-03-23T19:52:05;10.10;92.50
21169;DHT22;10742;51.816;8.662;2024-03-23T19:55:26;10.00;92.60
21169;DHT22;10742;51.816;8.662;2024-03-23T19:58:46;10.00;92.60
21169;DHT22;10742;51.816;8.662;2024-03-23T20:02:06;9.90;92.60
21169;DHT22;10742;51.816;8.662;2024-03-23T20:05:27;9.90;92.70
21169;DHT22;10742;51.816;8.662;2024-03-23T20:08:47;9.90;92.70
21169;DHT22;10742;51.816;8.662;2024-03-23T20:12:08;9.80;92.70
21169;DHT22;10742;51.816;8.662;2024-03-23T20:15:29;9.80;92.80
21169;DHT22;10742;51.816;8.662;2024-03-23T20:18:55;9.70;92.80
21169;DHT22;10742;51.816;8.662;2024-03-23T20:22:16;9.70;93.00
21169;DHT22;10742;51.816;8.662;2024-03-23T20:25:36;9.60;92.90
21169;DHT22;10742;51.816;8.662;2024-03-23T20:28:57;9.60;92.90
21169;DHT22;10742;51.816;8.662;2024-03-23T20:32:17;9.60;93.00
21169;DHT22;10742;51.816;8.662;2024-03-23T20:35:46;9.60;93.00
21169;DHT22;10742;51.816;8.662;2024-03-23T20:39:07;9.50;93.20
21169;DHT22;10742;51.816;8.662;2024-03-23T20:42:28;9.50;93.00
21169;DHT22;10742;51.816;8.662;2024-03-23T20:46:02;9.50;93.10
21169;DHT22;10742;51.816;8.662;2024-03-23T20:49:23;9.40;93.30
21169;DHT22;10742;51.816;8.662;2024-03-23T20:52:43;9.40;93.20
21169;DHT22;10742;51.816;8.662;2024-03-23T20:56:04;9.30;93.20
21169;DHT22;10742;51.816;8.662;2024-03-23T20:59:25;9.30;93.30
21169;DHT22;10742;51.816;8.662;2024-03-23T21:02:46;9.30;93.30
21169;DHT22;10742;51.816;8.662;2024-03-23T21:06:06;9.30;93.40
21169;DHT22;10742;51.816;8.662;2024-03-23T21:09:27;9.30;93.60
21169;DHT22;10742;51.816;8.662;2024-03-23T21:12:48;9.20;93.60
21169;DHT22;10742;51.816;8.662;2024-03-23T21:16:08;9.20;93.70
21169;DHT22;10742;51.816;8.662;2024-03-23T21:19:29;9.20;93.80
21169;DHT22;10742;51.816;8.662;2024-03-23T21:22:52;9.20;93.90
21169;DHT22;10742;51.816;8.662;2024-03-23T21:26:13;9.20;94.10
21169;DHT22;10742;51.816;8.662;2024-03-23T21:29:33;9.20;94.10
21169;DHT22;10742;51.816;8.662;2024-03-23T21:32:54;9.20;94.10
21169;DHT22;10742;51.816;8.662;2024-03-23T21:36:14;9.20;94.20
21169;DHT22;10742;51.816;8.662;2024-03-23T21:39:35;9.20;94.20
21169;DHT22;10742;51.816;8.662;2024-03-23T21:42:55;9.20;94.20
21169;DHT22;10742;51.816;8.662;2024-03-23T21:46:15;9.20;94.30
21169;DHT22;10742;51.816;8.662;2024-03-23T21:49:36;9.20;94.20
21169;DHT22;10742;51.816;8.662;2024-03-23T21:52:57;9.20;94.20
21169;DHT22;10742;51.816;8.662;2024-03-23T21:56:17;9.20;94.20
21169;DHT22;10742;51.816;8.662;2024-03-23T21:59:38;9.20;94.30
21169;DHT22;10742;51.816;8.662;2024-03-23T22:02:59;9.20;94.30
21169;DHT22;10742;51.816;8.662;2024-03-23T22:06:19;9.20;94.30
21169;DHT22;10742;51.816;8.662;2024-03-23T22:09:40;9.20;94.40
21169;DHT22;10742;51.816;8.662;2024-03-23T22:13:01;9.20;94.40
21169;DHT22;10742;51.816;8.662;2024-03-23T22:16:21;9.20;94.40